Time;durP1;ratioP1;P1;durP2;ratioP2;P2;SDS_P1;SDS_P2;PMS_P1;PMS_P2;Temp;Humidity;BMP_temperature;BMP_pressure;BME280_temperature;BME280_humidity;BME280_pressure;Samples;Min_cycle;Max_cycle;Signal;HPM_P1;HPM_P2
2021/10/05 00:00:00;;;;;;;19.40;9.75;;;18.20;64.60;;;;;;5060943;28;20040;-66
2021/10/05 00:02:25;;;;;;;14.45;9.32;;;18.20;64.60;;;;;;5062592;28;20405;-66
2021/10/05 00:04:51;;;;;;;15.45;10.82;;;18.10;64.60;;;;;;5070160;28;20029;-67
2021/10/05 00:07:17;;;;;;;16.17;10.77;;;18.10;64.80;;;;;;5070821;28;20021;-67
2021/10/05 00:09:43;;;;;;;14.32;9.75;;;18.00;65.10;;;;;;5068450;28;20032;-66
2021/10/05 00:12:09;;;;;;;12.85;9.48;;;18.00;64.80;;;;;;5050527;28;20108;-67
2021/10/05 00:14:35;;;;;;;12.38;8.90;;;18.00;65.10;;;;;;5050686;28;20116;-66
2021/10/05 00:17:01;;;;;;;18.25;9.15;;;18.00;65.00;;;;;;5053064;28;20537;-67
2021/10/05 00:19:27;;;;;;;14.35;10.85;;;18.00;65.00;;;;;;5068526;28;20086;-67
2021/10/05 00:21:52;;;;;;;15.05;10.35;;;17.90;65.10;;;;;;5068680;28;20099;-67
2021/10/05 00:24:18;;;;;;;15.45;10.77;;;17.90;65.10;;;;;;5058786;28;20035;-67
2021/10/05 00:26:44;;;;;;;15.88;11.20;;;17.90;65.30;;;;;;5053411;28;20036;-67
2021/10/05 00:29:09;;;;;;;15.88;9.98;;;17.80;65.40;;;;;;5053391;28;20029;-66
2021/10/05 00:31:35;;;;;;;13.35;10.15;;;17.80;65.50;;;;;;5061576;28;20025;-67
2021/10/05 00:34:01;;;;;;;18.13;10.40;;;17.80;65.40;;;;;;5068928;28;20528;-66
2021/10/05 00:36:27;;;;;;;17.48;9.80;;;17.80;65.50;;;;;;5054205;28;20033;-66
2021/10/05 00:38:53;;;;;;;11.40;8.40;;;17.70;65.50;;;;;;5054067;28;20024;-66
2021/10/05 00:41:18;;;;;;;18.33;9.85;;;17.70;65.40;;;;;;5054230;28;20086;-66
2021/10/05 00:43:44;;;;;;;15.40;9.77;;;17.70;65.60;;;;;;5059289;28;20017;-66
2021/10/05 00:46:10;;;;;;;14.32;9.43;;;17.70;65.60;;;;;;5074154;28;20040;-67
2021/10/05 00:48:35;;;;;;;18.58;10.77;;;17.70;65.80;;;;;;5065189;28;20106;-67
2021/10/05 00:51:01;;;;;;;15.60;9.57;;;17.70;66.00;;;;;;5053919;28;20479;-66
2021/10/05 00:53:27;;;;;;;13.93;9.52;;;17.60;66.00;;;;;;5053775;28;20037;-66
2021/10/05 00:55:54;;;;;;;12.27;8.57;;;17.60;66.10;;;;;;5053944;28;20040;-67
2021/10/05 00:58:19;;;;;;;12.05;8.77;;;17.60;66.00;;;;;;5053965;28;20028;-66
2021/10/05 01:00:45;;;;;;;19.60;9.93;;;17.60;66.00;;;;;;5053389;28;20478;-66
2021/10/05 01:03:11;;;;;;;12.32;8.95;;;17.60;66.00;;;;;;5071420;28;20488;-66
2021/10/05 01:05:37;;;;;;;12.75;8.55;;;17.50;65.90;;;;;;5073584;28;20032;-66
2021/10/05 01:08:03;;;;;;;14.27;9.75;;;17.50;66.30;;;;;;5073253;28;20017;-66
2021/10/05 01:10:29;;;;;;;15.23;10.95;;;17.50;66.80;;;;;;5072451;28;20040;-66
2021/10/05 01:12:55;;;;;;;18.40;12.07;;;17.50;66.90;;;;;;5071378;28;20032;-66
2021/10/05 01:15:24;;;;;;;17.50;10.48;;;17.50;66.90;;;;;;5054359;28;20032;-66
2021/10/05 01:17:50;;;;;;;14.48;9.85;;;17.50;66.80;;;;;;5053460;28;20474;-66
2021/10/05 01:20:16;;;;;;;18.85;10.50;;;17.50;66.80;;;;;;5053303;28;20037;-66
2021/10/05 01:22:42;;;;;;;14.20;9.05;;;17.50;66.60;;;;;;5069200;28;20039;-66
2021/10/05 01:25:11;;;;;;;13.48;9.20;;;17.50;66.50;;;;;;5055256;28;20033;-67
2021/10/05 01:27:44;;;;;;;14.10;9.15;;;17.40;66.40;;;;;;5053253;28;20021;-66
2021/10/05 01:30:10;;;;;;;13.60;9.13;;;17.40;66.60;;;;;;5052949;28;20021;-66
2021/10/05 01:32:36;;;;;;;15.52;10.23;;;17.40;66.70;;;;;;5053172;28;20074;-67
2021/10/05 01:35:02;;;;;;;14.02;8.85;;;17.40;66.70;;;;;;5051766;28;20032;-66
2021/10/05 01:37:28;;;;;;;14.70;9.85;;;17.40;66.60;;;;;;5052903;28;20665;-67
2021/10/05 01:39:54;;;;;;;14.10;10.10;;;17.30;66.60;;;;;;5053193;28;20082;-66
2021/10/05 01:42:19;;;;;;;17.88;9.73;;;17.30;66.80;;;;;;5053632;28;20025;-66
2021/10/05 01:44:45;;;;;;;14.98;10.75;;;17.30;66.90;;;;;;5072653;28;20497;-66
2021/10/05 01:47:11;;;;;;;23.10;11.65;;;17.30;67.10;;;;;;5073061;28;20047;-66
2021/10/05 01:49:38;;;;;;;23.15;11.13;;;17.30;67.30;;;;;;5070547;28;20435;-66
2021/10/05 01:52:05;;;;;;;17.10;11.55;;;17.30;67.30;;;;;;5071466;28;20036;-66
2021/10/05 01:54:31;;;;;;;15.23;10.65;;;17.30;68.20;;;;;;5068217;28;20025;-66
2021/10/05 01:56:57;;;;;;;19.42;12.00;;;17.30;67.50;;;;;;5052568;28;20041;-66
2021/10/05 01:59:23;;;;;;;19.45;11.63;;;17.30;67.70;;;;;;5051020;28;20032;-65
2021/10/05 02:01:49;;;;;;;17.83;13.00;;;17.30;67.80;;;;;;5051068;28;20033;-66
2021/10/05 02:04:14;;;;;;;19.50;11.50;;;17.30;67.80;;;;;;5052453;28;20047;-66
2021/10/05 02:06:41;;;;;;;22.88;11.02;;;17.30;67.80;;;;;;5052398;28;20117;-67
2021/10/05 02:09:09;;;;;;;23.38;11.82;;;17.30;67.60;;;;;;5052405;28;20042;-68
2021/10/05 02:11:35;;;;;;;23.27;11.02;;;17.30;67.70;;;;;;5052417;28;20112;-67
2021/10/05 02:14:02;;;;;;;34.28;13.13;;;17.30;67.60;;;;;;5058810;28;20029;-67
2021/10/05 02:16:29;;;;;;;19.90;10.40;;;17.30;67.80;;;;;;5071808;28;20039;-67
2021/10/05 02:18:55;;;;;;;34.47;12.00;;;17.30;67.80;;;;;;5059049;28;20409;-68
2021/10/05 02:21:21;;;;;;;32.00;11.25;;;17.30;67.90;;;;;;5052035;28;20025;-67
2021/10/05 02:26:33;;;;;;;20.50;13.15;;;17.30;67.80;;;;;;5052299;28;20063;-67
2021/10/05 02:29:00;;;;;;;16.15;11.25;;;17.30;68.10;;;;;;5051886;28;20063;-67
2021/10/05 02:31:26;;;;;;;14.63;9.55;;;17.30;68.00;;;;;;5051849;28;20029;-67
2021/10/05 02:33:52;;;;;;;16.90;10.40;;;17.30;67.90;;;;;;5051720;28;20029;-68
2021/10/05 02:36:19;;;;;;;17.55;12.00;;;17.30;67.90;;;;;;5051772;28;20406;-66
2021/10/05 02:38:44;;;;;;;19.27;11.93;;;17.30;68.20;;;;;;5050419;28;20025;-67
2021/10/05 02:41:10;;;;;;;28.38;11.98;;;17.30;68.10;;;;;;5070998;28;20107;-67
2021/10/05 02:43:36;;;;;;;24.35;12.52;;;17.30;68.00;;;;;;5069219;28;20383;-67
2021/10/05 02:46:02;;;;;;;24.33;14.63;;;17.30;68.00;;;;;;5071379;28;20037;-67
2021/10/05 02:48:28;;;;;;;18.65;11.43;;;17.30;68.00;;;;;;5069665;28;20054;-67
2021/10/05 02:50:54;;;;;;;18.60;10.77;;;17.30;68.00;;;;;;5060182;28;20033;-67
2021/10/05 02:53:19;;;;;;;17.52;12.15;;;17.30;67.90;;;;;;5053148;28;20104;-67
2021/10/05 02:55:47;;;;;;;20.45;12.63;;;17.30;67.90;;;;;;5070874;28;20036;-67
2021/10/05 02:58:14;;;;;;;29.05;12.80;;;17.30;67.90;;;;;;5071427;28;20081;-67
2021/10/05 03:00:40;;;;;;;22.27;14.35;;;17.30;67.90;;;;;;5069500;28;20036;-67
2021/10/05 03:03:06;;;;;;;17.13;11.77;;;17.20;68.00;;;;;;5071425;28;20087;-66
2021/10/05 03:05:32;;;;;;;20.65;13.40;;;17.20;68.00;;;;;;5057486;28;20076;-67
2021/10/05 03:07:58;;;;;;;15.95;11.35;;;17.20;68.20;;;;;;5051434;28;20045;-66
2021/10/05 03:10:23;;;;;;;19.35;11.77;;;17.10;67.90;;;;;;5051235;28;20121;-67
2021/10/05 03:12:49;;;;;;;14.55;10.57;;;17.20;68.60;;;;;;5067166;28;20033;-67
2021/10/05 03:15:15;;;;;;;16.85;11.45;;;17.10;67.80;;;;;;5071011;28;20139;-67
2021/10/05 03:17:42;;;;;;;20.50;12.63;;;17.10;67.80;;;;;;5056887;28;20041;-66
2021/10/05 03:20:08;;;;;;;16.55;10.93;;;17.10;68.00;;;;;;5051330;28;20032;-67
2021/10/05 03:22:34;;;;;;;16.35;11.32;;;17.10;67.90;;;;;;5051266;28;20025;-67
2021/10/05 03:25:00;;;;;;;17.95;12.13;;;17.00;67.90;;;;;;5065826;28;20102;-67
2021/10/05 03:27:25;;;;;;;20.35;14.20;;;17.00;68.20;;;;;;5069446;28;20016;-67
2021/10/05 03:29:51;;;;;;;17.88;11.23;;;17.00;68.20;;;;;;5051054;28;20029;-67
2021/10/05 03:32:17;;;;;;;15.45;10.70;;;17.00;68.20;;;;;;5049868;28;20032;-67
2021/10/05 03:34:43;;;;;;;15.55;11.43;;;17.00;68.10;;;;;;5051029;28;20116;-67
2021/10/05 03:37:08;;;;;;;16.77;11.35;;;17.00;68.20;;;;;;5051198;28;20078;-67
2021/10/05 03:39:34;;;;;;;18.35;12.60;;;17.00;68.30;;;;;;5049743;28;20040;-68
2021/10/05 03:42:00;;;;;;;22.33;11.35;;;16.90;68.40;;;;;;5062256;28;20032;-67
2021/10/05 03:44:26;;;;;;;15.48;10.85;;;16.90;68.30;;;;;;5060504;28;20029;-67
2021/10/05 03:46:52;;;;;;;17.52;11.40;;;16.90;68.30;;;;;;5051053;28;20021;-67
2021/10/05 03:49:18;;;;;;;16.15;10.88;;;17.00;68.30;;;;;;5055058;28;20137;-67
2021/10/05 03:51:46;;;;;;;19.70;12.55;;;17.00;68.40;;;;;;5071137;28;20020;-67
2021/10/05 03:54:12;;;;;;;22.67;12.48;;;16.90;68.60;;;;;;5069008;28;20067;-67
2021/10/05 03:56:37;;;;;;;18.60;12.40;;;16.90;68.60;;;;;;5070864;28;20032;-67
2021/10/05 03:59:03;;;;;;;18.50;11.27;;;16.90;68.60;;;;;;5072743;28;20033;-66
2021/10/05 04:01:29;;;;;;;17.90;12.10;;;16.90;69.30;;;;;;5072984;28;20033;-67
2021/10/05 04:03:55;;;;;;;16.50;11.02;;;16.90;68.50;;;;;;5074482;28;20067;-66
2021/10/05 04:06:21;;;;;;;17.33;11.38;;;16.90;68.50;;;;;;5073171;28;20036;-67
2021/10/05 04:08:47;;;;;;;17.38;11.75;;;16.90;68.60;;;;;;5074150;28;20017;-67
2021/10/05 04:11:13;;;;;;;19.10;13.00;;;16.90;68.80;;;;;;5056694;28;20479;-67
2021/10/05 04:13:40;;;;;;;19.98;11.43;;;16.90;69.00;;;;;;5054640;28;20102;-67
2021/10/05 04:16:06;;;;;;;16.27;10.60;;;16.90;68.90;;;;;;5055334;28;20389;-66
2021/10/05 04:18:32;;;;;;;23.25;13.85;;;16.90;68.80;;;;;;5069441;28;20055;-65
2021/10/05 04:20:58;;;;;;;21.60;13.77;;;16.90;69.10;;;;;;5054533;28;20513;-65
2021/10/05 04:23:24;;;;;;;23.75;13.10;;;16.90;69.40;;;;;;5059144;28;20033;-66
2021/10/05 04:25:49;;;;;;;17.92;12.57;;;16.90;69.60;;;;;;5054498;28;20067;-65
2021/10/05 04:28:15;;;;;;;24.50;14.15;;;16.90;69.60;;;;;;5054537;28;20025;-66
2021/10/05 04:30:41;;;;;;;16.08;11.18;;;16.80;69.60;;;;;;5054348;28;20060;-65
2021/10/05 04:33:07;;;;;;;15.90;10.00;;;16.80;69.40;;;;;;5072990;28;20035;-66
2021/10/05 04:35:32;;;;;;;15.40;10.73;;;16.90;69.30;;;;;;5061910;28;20045;-66
2021/10/05 04:37:58;;;;;;;20.60;11.48;;;16.90;69.20;;;;;;5054396;28;20052;-66
2021/10/05 04:40:24;;;;;;;15.70;9.88;;;16.90;69.30;;;;;;5054421;28;20411;-66
2021/10/05 04:42:50;;;;;;;23.65;10.45;;;16.80;69.30;;;;;;5054202;28;20039;-66
2021/10/05 04:45:16;;;;;;;14.57;10.02;;;16.80;69.30;;;;;;5055022;28;20025;-66
2021/10/05 04:47:42;;;;;;;12.93;9.10;;;16.90;69.40;;;;;;5053772;28;20027;-66
2021/10/05 04:50:09;;;;;;;13.10;9.27;;;16.90;69.30;;;;;;5053849;28;20036;-66
2021/10/05 04:52:36;;;;;;;13.82;9.35;;;16.90;69.30;;;;;;5066792;28;20112;-66
2021/10/05 04:55:03;;;;;;;16.13;9.73;;;16.80;69.30;;;;;;5058728;28;20154;-67
2021/10/05 04:57:29;;;;;;;14.48;9.80;;;16.90;69.40;;;;;;5066332;28;20033;-66
2021/10/05 04:59:54;;;;;;;11.55;8.20;;;16.90;69.60;;;;;;5054355;28;20028;-67
2021/10/05 05:02:20;;;;;;;11.40;7.60;;;16.90;69.50;;;;;;5053478;28;20182;-66
2021/10/05 05:04:46;;;;;;;13.65;6.70;;;17.00;69.60;;;;;;5058869;28;20103;-67
2021/10/05 05:07:12;;;;;;;12.82;6.78;;;16.90;69.60;;;;;;5073384;28;20462;-66
2021/10/05 05:09:39;;;;;;;7.65;5.65;;;17.00;69.70;;;;;;5058106;28;20037;-67
2021/10/05 05:12:05;;;;;;;7.60;4.70;;;17.00;69.80;;;;;;5053590;28;20032;-66
2021/10/05 05:14:31;;;;;;;9.90;5.63;;;17.10;69.80;;;;;;5062679;28;20080;-67
2021/10/05 05:16:56;;;;;;;8.05;5.82;;;17.10;69.70;;;;;;5056100;28;20474;-66
2021/10/05 05:19:22;;;;;;;8.88;6.10;;;17.20;69.60;;;;;;5053791;28;20056;-66
2021/10/05 05:21:49;;;;;;;9.38;6.35;;;17.20;69.40;;;;;;5053378;28;20095;-66
2021/10/05 05:24:15;;;;;;;10.57;5.88;;;17.20;69.40;;;;;;5054573;28;20443;-67
2021/10/05 05:26:40;;;;;;;7.30;5.45;;;17.30;69.30;;;;;;5062191;28;20052;-66
2021/10/05 05:29:06;;;;;;;6.32;5.05;;;17.30;69.10;;;;;;5053456;28;20063;-66
2021/10/05 05:31:32;;;;;;;6.75;5.32;;;17.40;69.20;;;;;;5053302;28;20029;-67
2021/10/05 05:33:58;;;;;;;8.10;4.97;;;17.40;69.00;;;;;;5060864;28;20060;-67
2021/10/05 05:36:24;;;;;;;8.85;5.55;;;17.50;69.00;;;;;;5073187;28;20055;-67
2021/10/05 05:38:50;;;;;;;6.10;4.88;;;17.50;69.00;;;;;;5067939;28;20029;-67
2021/10/05 05:41:16;;;;;;;5.88;4.80;;;17.50;69.00;;;;;;5053395;28;20045;-67
2021/10/05 05:43:41;;;;;;;8.32;4.60;;;17.60;69.00;;;;;;5065077;28;20017;-67
2021/10/05 05:46:07;;;;;;;6.28;4.30;;;17.70;69.00;;;;;;5055852;28;20095;-67
2021/10/05 05:48:33;;;;;;;7.47;4.70;;;17.70;69.00;;;;;;5067232;28;20048;-67
2021/10/05 05:50:59;;;;;;;17.92;5.53;;;17.80;68.90;;;;;;5053372;28;20036;-67
2021/10/05 05:53:24;;;;;;;5.78;4.50;;;17.90;68.70;;;;;;5059656;28;20028;-67
2021/10/05 05:55:50;;;;;;;7.65;4.68;;;18.00;68.60;;;;;;5068017;28;20090;-67
2021/10/05 05:58:17;;;;;;;9.95;5.28;;;18.10;68.30;;;;;;5052686;28;20116;-67
2021/10/05 06:00:44;;;;;;;6.45;5.03;;;18.20;68.20;;;;;;5072985;28;20044;-68
2021/10/05 06:03:14;;;;;;;8.00;5.22;;;18.30;68.20;;;;;;5073392;28;20116;-67
2021/10/05 06:05:40;;;;;;;10.70;5.07;;;18.40;68.00;;;;;;5060658;28;20486;-67
2021/10/05 06:08:07;;;;;;;10.75;5.40;;;18.50;67.70;;;;;;5053119;28;20025;-67
2021/10/05 06:10:33;;;;;;;9.25;6.22;;;18.60;67.50;;;;;;5056102;28;20043;-67
2021/10/05 06:12:59;;;;;;;13.35;6.60;;;18.70;67.10;;;;;;5059347;28;20033;-67
2021/10/05 06:15:25;;;;;;;9.80;6.38;;;18.80;66.80;;;;;;5053059;28;20025;-67
2021/10/05 06:17:51;;;;;;;11.70;6.95;;;18.90;66.60;;;;;;5055194;28;20490;-67
2021/10/05 06:20:23;;;;;;;13.23;7.50;;;19.00;66.40;;;;;;5071352;28;20402;-67
2021/10/05 06:22:50;;;;;;;15.80;8.82;;;19.00;66.20;;;;;;5065375;28;20052;-66
2021/10/05 06:25:19;;;;;;;26.92;12.43;;;19.10;66.10;;;;;;5053721;28;20021;-66
2021/10/05 06:27:45;;;;;;;23.05;11.32;;;19.20;65.70;;;;;;5052764;28;20071;-67
2021/10/05 06:30:13;;;;;;;25.35;12.05;;;19.20;65.20;;;;;;5052958;28;20033;-65
2021/10/05 06:32:40;;;;;;;18.60;10.52;;;19.30;64.80;;;;;;5067683;28;20121;-67
2021/10/05 06:35:07;;;;;;;22.30;9.50;;;19.30;64.30;;;;;;5058026;28;20039;-67
2021/10/05 06:37:33;;;;;;;19.67;10.05;;;19.40;64.00;;;;;;5074080;28;20103;-67
2021/10/05 06:39:59;;;;;;;17.38;10.07;;;19.50;63.70;;;;;;5063420;28;20570;-66
2021/10/05 06:42:25;;;;;;;18.42;10.02;;;19.50;63.80;;;;;;5060018;28;20498;-66
2021/10/05 06:44:50;;;;;;;17.42;10.45;;;19.60;63.00;;;;;;5061805;28;20019;-67
2021/10/05 06:47:16;;;;;;;15.52;10.30;;;19.70;62.90;;;;;;5071267;28;20063;-67
2021/10/05 06:49:42;;;;;;;20.48;10.13;;;19.80;62.50;;;;;;5070131;28;20029;-67
2021/10/05 06:52:08;;;;;;;19.60;10.52;;;20.00;62.40;;;;;;5071262;28;20529;-67
2021/10/05 06:54:34;;;;;;;20.58;11.52;;;20.10;61.40;;;;;;5069385;28;20062;-67
2021/10/05 06:57:00;;;;;;;22.65;12.30;;;20.30;61.20;;;;;;5085665;28;20028;-67
2021/10/05 06:59:26;;;;;;;19.73;12.80;;;20.40;60.50;;;;;;5079784;28;20096;-67
2021/10/05 07:01:52;;;;;;;26.67;13.85;;;20.60;59.80;;;;;;5055037;28;20064;-67
2021/10/05 07:04:18;;;;;;;27.35;13.40;;;20.60;59.20;;;;;;5051642;28;20045;-67
2021/10/05 07:06:44;;;;;;;17.85;12.10;;;20.70;59.10;;;;;;5060597;28;20033;-67
2021/10/05 07:09:11;;;;;;;20.08;13.70;;;20.70;59.00;;;;;;5064241;28;20074;-67
2021/10/05 07:11:37;;;;;;;25.52;15.27;;;20.80;58.90;;;;;;5052119;28;20109;-68
2021/10/05 07:14:03;;;;;;;23.48;15.85;;;20.80;58.60;;;;;;5052149;28;20075;-68
2021/10/05 07:16:29;;;;;;;29.10;17.50;;;20.70;58.70;;;;;;5052046;28;20033;-68
2021/10/05 07:18:55;;;;;;;29.40;17.40;;;20.70;58.50;;;;;;5057710;28;20115;-68
2021/10/05 07:21:23;;;;;;;26.08;16.75;;;20.60;58.50;;;;;;5070631;28;20465;-68
2021/10/05 07:23:50;;;;;;;23.80;15.82;;;20.50;58.80;;;;;;5060061;28;20025;-69
2021/10/05 07:26:18;;;;;;;23.98;16.98;;;20.40;59.00;;;;;;5057190;28;20033;-68
2021/10/05 07:28:44;;;;;;;26.38;16.55;;;20.30;59.00;;;;;;5068151;28;20032;-68
2021/10/05 07:31:10;;;;;;;29.40;16.75;;;20.10;59.30;;;;;;5059458;28;20097;-68
2021/10/05 07:33:36;;;;;;;22.15;15.35;;;20.10;59.50;;;;;;5063981;28;20064;-68
2021/10/05 07:36:02;;;;;;;22.30;16.63;;;20.00;59.80;;;;;;5070650;28;20056;-67
2021/10/05 07:38:27;;;;;;;24.55;16.55;;;19.90;60.00;;;;;;5084092;28;20036;-68
2021/10/05 07:40:53;;;;;;;28.98;19.08;;;19.90;60.10;;;;;;5063889;28;20020;-68
2021/10/05 07:43:19;;;;;;;26.70;18.05;;;19.90;60.30;;;;;;5074262;28;20497;-68
2021/10/05 07:45:45;;;;;;;29.27;19.35;;;19.90;60.60;;;;;;5059094;28;20029;-67
2021/10/05 07:48:12;;;;;;;29.10;19.05;;;19.90;60.80;;;;;;5074430;28;20025;-67
2021/10/05 07:50:38;;;;;;;40.08;19.58;;;19.90;60.70;;;;;;5059647;28;20020;-66
2021/10/05 07:53:04;;;;;;;35.03;20.85;;;19.90;60.70;;;;;;5076664;28;20038;-68
2021/10/05 07:55:31;;;;;;;35.88;20.25;;;19.80;60.70;;;;;;5073780;28;20020;-68
2021/10/05 07:57:57;;;;;;;30.25;20.17;;;19.90;61.00;;;;;;5072533;28;20051;-68
2021/10/05 08:00:23;;;;;;;27.35;18.65;;;19.90;61.00;;;;;;5052131;28;20470;-68
2021/10/05 08:02:49;;;;;;;33.97;19.35;;;20.00;61.00;;;;;;5059449;28;20052;-66
2021/10/05 08:05:19;;;;;;;27.80;17.48;;;20.10;60.90;;;;;;5048274;28;20108;-67
2021/10/05 08:07:46;;;;;;;30.30;19.50;;;20.20;60.50;;;;;;5055509;28;20394;-67
2021/10/05 08:10:13;;;;;;;33.17;18.52;;;20.30;60.00;;;;;;5055999;28;20573;-66
2021/10/05 08:12:40;;;;;;;27.13;17.88;;;20.30;60.80;;;;;;5062163;28;20025;-66
2021/10/05 08:15:07;;;;;;;28.40;18.10;;;20.50;60.20;;;;;;5063770;28;20028;-66
2021/10/05 08:17:33;;;;;;;30.15;18.75;;;20.50;59.70;;;;;;5066203;28;20526;-66
2021/10/05 08:19:58;;;;;;;31.08;18.90;;;20.60;59.70;;;;;;5069963;28;20112;-66
2021/10/05 08:22:24;;;;;;;25.70;16.75;;;20.70;59.30;;;;;;5076524;28;20018;-66
2021/10/05 08:24:50;;;;;;;32.88;19.10;;;20.80;59.30;;;;;;5053538;28;20048;-66
2021/10/05 08:27:16;;;;;;;28.45;17.85;;;20.90;59.00;;;;;;5060716;28;20024;-67
2021/10/05 08:29:44;;;;;;;27.15;16.90;;;21.00;58.70;;;;;;5051904;28;20028;-67
2021/10/05 08:32:11;;;;;;;25.42;17.20;;;21.10;58.50;;;;;;5063757;28;20509;-67
2021/10/05 08:34:38;;;;;;;24.58;17.02;;;21.10;58.20;;;;;;5056256;28;20407;-67
2021/10/05 08:37:04;;;;;;;33.75;18.23;;;21.20;57.60;;;;;;5052402;28;20066;-67
2021/10/05 08:39:30;;;;;;;26.88;17.13;;;21.20;57.30;;;;;;5080486;28;20024;-67
2021/10/05 08:41:56;;;;;;;26.40;16.00;;;21.30;57.40;;;;;;5068303;28;20024;-68
2021/10/05 08:44:25;;;;;;;34.85;17.23;;;21.40;57.30;;;;;;5068700;28;20021;-67
2021/10/05 08:46:53;;;;;;;26.17;15.90;;;21.40;57.20;;;;;;5075550;28;20069;-67
2021/10/05 08:49:21;;;;;;;27.02;16.52;;;21.40;57.20;;;;;;5083418;28;20020;-67
2021/10/05 08:51:49;;;;;;;28.27;16.05;;;21.60;57.10;;;;;;5088373;28;20537;-67
2021/10/05 08:54:14;;;;;;;26.55;15.93;;;21.60;57.00;;;;;;5067122;28;20029;-68
2021/10/05 08:56:45;;;;;;;33.45;17.67;;;21.70;57.20;;;;;;5060042;28;20362;-67
2021/10/05 08:59:11;;;;;;;26.33;17.48;;;21.70;56.60;;;;;;5061041;28;20116;-67
2021/10/05 09:01:37;;;;;;;29.00;16.60;;;21.80;56.40;;;;;;5055046;28;20025;-67
2021/10/05 09:04:04;;;;;;;24.52;16.50;;;21.80;56.60;;;;;;5054252;28;20087;-67
2021/10/05 09:06:31;;;;;;;27.48;17.15;;;21.90;56.70;;;;;;5090594;28;20033;-68
2021/10/05 09:08:57;;;;;;;36.17;20.15;;;22.00;56.70;;;;;;5060930;28;20013;-67
2021/10/05 09:11:25;;;;;;;29.42;19.42;;;22.00;56.30;;;;;;5056897;28;20061;-66
2021/10/05 09:13:54;;;;;;;27.63;18.23;;;22.00;56.10;;;;;;5054540;28;20071;-67
2021/10/05 09:16:27;;;;;;;29.92;18.75;;;22.00;55.90;;;;;;5073086;28;20032;-67
2021/10/05 09:18:56;;;;;;;28.27;18.80;;;22.10;56.00;;;;;;5082873;28;20075;-68
2021/10/05 09:21:24;;;;;;;29.92;19.88;;;22.10;56.10;;;;;;5081143;28;20054;-68
2021/10/05 09:23:59;;;;;;;35.22;18.98;;;22.10;55.60;;;;;;5066825;28;20432;-68
2021/10/05 09:26:57;;;;;;;25.98;17.83;;;22.10;55.70;;;;;;5062770;28;20124;-67
2021/10/05 09:29:35;;;;;;;30.33;18.40;;;22.20;56.30;;;;;;5070587;28;20037;-67
2021/10/05 09:32:07;;;;;;;26.75;17.95;;;22.20;56.30;;;;;;5068021;28;20028;-68
2021/10/05 09:34:50;;;;;;;29.85;18.75;;;22.30;56.40;;;;;;5063867;28;20031;-69
2021/10/05 09:37:20;;;;;;;30.85;19.83;;;22.30;56.50;;;;;;5082781;28;20038;-67
2021/10/05 09:40:04;;;;;;;30.35;19.55;;;22.50;56.40;;;;;;5054669;28;20174;-68
2021/10/05 09:42:36;;;;;;;33.20;20.08;;;22.60;56.30;;;;;;5079782;28;20071;-67
2021/10/05 09:45:05;;;;;;;29.08;20.15;;;22.70;55.40;;;;;;5053002;28;20028;-68
2021/10/05 09:47:43;;;;;;;30.30;18.88;;;22.70;55.20;;;;;;5060936;28;20565;-68
2021/10/05 09:50:28;;;;;;;32.72;20.10;;;22.70;55.20;;;;;;5067779;28;20036;-68
2021/10/05 09:52:55;;;;;;;36.65;21.42;;;22.80;55.10;;;;;;5067014;28;20035;-68
2021/10/05 09:55:24;;;;;;;36.80;22.25;;;22.80;54.90;;;;;;5064849;28;20540;-67
2021/10/05 09:57:51;;;;;;;29.10;18.17;;;22.80;54.40;;;;;;5082949;28;20077;-68
2021/10/05 10:00:19;;;;;;;36.25;19.80;;;22.80;54.90;;;;;;5055055;28;20478;-67
2021/10/05 10:02:45;;;;;;;30.80;16.85;;;22.80;54.50;;;;;;5062966;28;20035;-67
2021/10/05 10:05:16;;;;;;;27.85;17.13;;;22.90;54.80;;;;;;5071936;28;20042;-68
2021/10/05 10:07:47;;;;;;;28.15;16.55;;;22.90;53.80;;;;;;5079166;28;20454;-67
2021/10/05 10:10:15;;;;;;;28.73;17.00;;;22.90;53.70;;;;;;5061585;28;20057;-68
2021/10/05 10:12:53;;;;;;;26.70;16.30;;;23.00;53.50;;;;;;5051466;28;20025;-67
2021/10/05 10:15:22;;;;;;;27.65;14.65;;;23.00;53.30;;;;;;5056164;28;20064;-67
2021/10/05 10:17:48;;;;;;;23.35;14.50;;;22.90;53.30;;;;;;5063196;28;20024;-67
2021/10/05 10:20:25;;;;;;;21.60;14.40;;;22.90;53.40;;;;;;5066780;28;20021;-67
2021/10/05 10:22:52;;;;;;;19.85;12.55;;;22.90;53.30;;;;;;5071467;28;20033;-67
2021/10/05 10:25:32;;;;;;;23.98;12.75;;;22.90;53.20;;;;;;5055282;28;20021;-67
2021/10/05 10:28:10;;;;;;;22.25;13.07;;;22.80;53.00;;;;;;5053014;28;20024;-67
2021/10/05 10:30:49;;;;;;;19.50;13.43;;;22.80;52.80;;;;;;5056623;28;20077;-67
2021/10/05 10:33:15;;;;;;;18.13;13.13;;;22.80;53.00;;;;;;5053331;28;20377;-67
2021/10/05 10:35:59;;;;;;;20.45;11.13;;;22.80;53.10;;;;;;5055522;28;20489;-66
2021/10/05 10:38:30;;;;;;;21.40;13.75;;;22.80;53.40;;;;;;5057941;28;20119;-66
2021/10/05 10:40:58;;;;;;;18.92;11.93;;;22.90;53.20;;;;;;5053431;28;20419;-66
2021/10/05 10:43:27;;;;;;;20.05;12.00;;;22.90;52.90;;;;;;5055957;28;20135;-67
2021/10/05 10:46:02;;;;;;;16.08;11.07;;;22.90;52.50;;;;;;5058851;28;20483;-67
2021/10/05 10:48:32;;;;;;;17.88;12.02;;;22.90;52.70;;;;;;5052472;28;20530;-67
2021/10/05 10:51:17;;;;;;;21.65;13.68;;;22.90;52.50;;;;;;5061937;28;20036;-67
2021/10/05 10:53:45;;;;;;;17.42;11.35;;;22.90;52.70;;;;;;5051201;28;20032;-67
2021/10/05 10:56:26;;;;;;;18.58;12.52;;;22.90;52.70;;;;;;5052207;28;20511;-67
2021/10/05 10:58:58;;;;;;;18.80;12.75;;;22.90;52.10;;;;;;5068395;28;20024;-67
2021/10/05 11:01:41;;;;;;;19.25;13.18;;;22.80;52.20;;;;;;5066125;28;20374;-67
2021/10/05 11:04:10;;;;;;;17.17;11.40;;;22.80;52.10;;;;;;5061194;28;20417;-68
2021/10/05 11:06:36;;;;;;;17.77;12.07;;;22.80;52.50;;;;;;5056646;28;20027;-67
2021/10/05 11:09:05;;;;;;;18.85;12.20;;;22.80;52.50;;;;;;5070027;28;20028;-67
2021/10/05 11:11:42;;;;;;;14.65;10.98;;;22.80;52.40;;;;;;5071060;28;20040;-67
2021/10/05 11:14:29;;;;;;;19.38;11.57;;;22.90;52.40;;;;;;5068804;28;20035;-67
2021/10/05 11:17:00;;;;;;;22.20;11.75;;;23.00;52.20;;;;;;5071198;28;20111;-67
2021/10/05 11:19:31;;;;;;;15.52;10.63;;;23.10;51.90;;;;;;5071151;28;20025;-67
2021/10/05 11:21:58;;;;;;;17.80;9.30;;;23.20;51.90;;;;;;5065947;28;20028;-67
2021/10/05 11:24:44;;;;;;;16.02;10.18;;;23.20;52.10;;;;;;5051109;28;20029;-66
2021/10/05 11:27:22;;;;;;;13.73;9.15;;;23.30;51.70;;;;;;5051394;28;20025;-66
2021/10/05 11:29:49;;;;;;;17.10;10.10;;;23.30;51.50;;;;;;5051241;28;20471;-67
2021/10/05 11:32:18;;;;;;;16.60;10.43;;;23.30;51.20;;;;;;5051065;28;20391;-67
2021/10/05 11:34:45;;;;;;;17.42;9.52;;;23.40;51.50;;;;;;5050910;28;20074;-67
2021/10/05 11:37:14;;;;;;;12.32;8.57;;;23.40;51.30;;;;;;5050966;28;20013;-66
2021/10/05 11:39:41;;;;;;;20.15;10.27;;;23.40;51.40;;;;;;5069782;28;20092;-68
2021/10/05 11:42:10;;;;;;;13.07;9.10;;;23.40;51.00;;;;;;5070832;28;20048;-68
2021/10/05 11:44:44;;;;;;;15.82;9.85;;;23.40;51.00;;;;;;5056761;28;20012;-68
2021/10/05 11:47:13;;;;;;;14.77;9.98;;;23.40;50.60;;;;;;5050920;28;20108;-68
2021/10/05 11:49:42;;;;;;;15.75;11.23;;;23.30;50.70;;;;;;5070337;28;20037;-67
2021/10/05 11:52:14;;;;;;;16.40;9.90;;;23.30;50.60;;;;;;5070709;28;20078;-68
2021/10/05 11:54:40;;;;;;;15.18;9.38;;;23.20;50.90;;;;;;5069044;28;20478;-68
2021/10/05 11:57:11;;;;;;;16.70;11.85;;;23.20;51.30;;;;;;5050807;28;20047;-68
2021/10/05 11:59:37;;;;;;;19.48;12.43;;;23.20;50.60;;;;;;5053875;28;20060;-67
2021/10/05 12:02:05;;;;;;;18.85;12.40;;;23.10;50.80;;;;;;5063834;28;20458;-67
2021/10/05 12:04:32;;;;;;;16.90;11.18;;;23.00;50.80;;;;;;5056664;28;20437;-68
2021/10/05 12:07:13;;;;;;;19.00;12.07;;;23.00;51.10;;;;;;5066416;28;20386;-67
2021/10/05 12:09:40;;;;;;;19.05;11.88;;;22.90;51.30;;;;;;5054715;28;20033;-67
2021/10/05 12:12:13;;;;;;;21.15;12.35;;;22.90;51.40;;;;;;5057775;28;20098;-67
2021/10/05 12:14:43;;;;;;;18.27;12.13;;;22.80;51.40;;;;;;5050904;28;20124;-67
2021/10/05 12:17:14;;;;;;;17.73;11.65;;;22.80;51.40;;;;;;5065742;28;20045;-68
2021/10/05 12:19:52;;;;;;;17.70;11.20;;;22.80;51.50;;;;;;5063975;28;20443;-68
2021/10/05 12:22:27;;;;;;;24.63;11.63;;;22.80;51.60;;;;;;5054100;28;20516;-68
2021/10/05 12:24:57;;;;;;;13.48;9.75;;;22.80;51.60;;;;;;5069025;28;20031;-68
2021/10/05 12:27:26;;;;;;;24.15;11.35;;;22.90;51.40;;;;;;5072376;28;20104;-68
2021/10/05 12:30:15;;;;;;;19.02;10.70;;;22.90;51.30;;;;;;5058579;28;20474;-68
2021/10/05 12:32:43;;;;;;;17.45;10.38;;;23.00;51.30;;;;;;5067227;28;20035;-67
2021/10/05 12:35:22;;;;;;;13.30;9.45;;;23.10;51.90;;;;;;5057037;28;20494;-68